sensor_id;sensor_type;location;lat;lon;timestamp;temperature;humidity
37281;DHT22;23169;41.804;12.596;2023-07-28T00:00:04;23.20;1.00
37281;DHT22;23169;41.804;12.596;2023-07-28T00:02:33;23.20;1.00
37281;DHT22;23169;41.804;12.596;2023-07-28T00:05:02;23.20;1.00
37281;DHT22;23169;41.804;12.596;2023-07-28T00:07:32;23.20;1.00
37281;DHT22;23169;41.804;12.596;2023-07-28T00:10:04;23.10;1.00
37281;DHT22;23169;41.804;12.596;2023-07-28T00:12:34;23.10;1.00
37281;DHT22;23169;41.804;12.596;2023-07-28T00:15:03;23.10;1.00
37281;DHT22;23169;41.804;12.596;2023-07-28T00:17:33;23.00;1.00
37281;DHT22;23169;41.804;12.596;2023-07-28T00:20:02;23.10;1.00
37281;DHT22;23169;41.804;12.596;2023-07-28T00:22:32;23.00;1.00
37281;DHT22;23169;41.804;12.596;2023-07-28T00:25:01;23.00;1.00
37281;DHT22;23169;41.804;12.596;2023-07-28T00:27:31;23.00;1.00
37281;DHT22;23169;41.804;12.596;2023-07-28T00:30:00;23.00;1.00
37281;DHT22;23169;41.804;12.596;2023-07-28T00:32:30;23.00;1.00
37281;DHT22;23169;41.804;12.596;2023-07-28T00:34:59;23.00;1.00
37281;DHT22;23169;41.804;12.596;2023-07-28T00:37:29;22.90;1.00
37281;DHT22;23169;41.804;12.596;2023-07-28T00:39:58;22.90;1.00
37281;DHT22;23169;41.804;12.596;2023-07-28T00:42:26;22.90;1.00
37281;DHT22;23169;41.804;12.596;2023-07-28T00:44:55;22.90;1.00
37281;DHT22;23169;41.804;12.596;2023-07-28T00:47:24;22.90;1.00
37281;DHT22;23169;41.804;12.596;2023-07-28T00:49:56;22.90;1.00
37281;DHT22;23169;41.804;12.596;2023-07-28T00:52:25;22.80;1.00
37281;DHT22;23169;41.804;12.596;2023-07-28T00:54:54;22.80;1.00
37281;DHT22;23169;41.804;12.596;2023-07-28T00:57:23;22.80;1.00
37281;DHT22;23169;41.804;12.596;2023-07-28T00:59:53;22.80;1.00
37281;DHT22;23169;41.804;12.596;2023-07-28T01:02:21;22.80;1.00
37281;DHT22;23169;41.804;12.596;2023-07-28T01:04:51;22.70;1.00
37281;DHT22;23169;41.804;12.596;2023-07-28T01:07:27;22.70;1.00
37281;DHT22;23169;41.804;12.596;2023-07-28T01:10:31;22.70;1.00
37281;DHT22;23169;41.804;12.596;2023-07-28T01:13:01;22.70;1.00
37281;DHT22;23169;41.804;12.596;2023-07-28T01:15:31;22.60;1.00
37281;DHT22;23169;41.804;12.596;2023-07-28T01:18:00;22.60;1.00
37281;DHT22;23169;41.804;12.596;2023-07-28T01:20:34;22.60;1.00
37281;DHT22;23169;41.804;12.596;2023-07-28T01:23:09;22.50;1.00
37281;DHT22;23169;41.804;12.596;2023-07-28T01:28:17;22.50;1.00
37281;DHT22;23169;41.804;12.596;2023-07-28T01:30:47;22.50;1.00
37281;DHT22;23169;41.804;12.596;2023-07-28T01:33:19;22.50;1.00
37281;DHT22;23169;41.804;12.596;2023-07-28T01:35:49;22.40;1.00
37281;DHT22;23169;41.804;12.596;2023-07-28T01:38:19;22.40;1.00
37281;DHT22;23169;41.804;12.596;2023-07-28T01:40:48;22.30;1.00
37281;DHT22;23169;41.804;12.596;2023-07-28T01:43:17;22.30;1.00
37281;DHT22;23169;41.804;12.596;2023-07-28T01:45:47;22.30;1.00
37281;DHT22;23169;41.804;12.596;2023-07-28T01:48:16;22.40;1.00
37281;DHT22;23169;41.804;12.596;2023-07-28T01:50:45;22.40;1.00
37281;DHT22;23169;41.804;12.596;2023-07-28T01:53:14;22.30;1.00
37281;DHT22;23169;41.804;12.596;2023-07-28T01:55:43;22.40;1.00
37281;DHT22;23169;41.804;12.596;2023-07-28T01:58:12;22.30;1.00
37281;DHT22;23169;41.804;12.596;2023-07-28T02:00:41;22.30;1.00
37281;DHT22;23169;41.804;12.596;2023-07-28T02:03:10;22.30;1.00
37281;DHT22;23169;41.804;12.596;2023-07-28T02:05:38;22.30;1.00
37281;DHT22;23169;41.804;12.596;2023-07-28T02:08:07;22.30;1.00
37281;DHT22;23169;41.804;12.596;2023-07-28T02:10:36;22.30;1.00
37281;DHT22;23169;41.804;12.596;2023-07-28T02:13:06;22.40;1.00
37281;DHT22;23169;41.804;12.596;2023-07-28T02:15:38;22.40;1.00
37281;DHT22;23169;41.804;12.596;2023-07-28T02:18:07;22.30;1.00
37281;DHT22;23169;41.804;12.596;2023-07-28T02:20:36;22.30;1.00
37281;DHT22;23169;41.804;12.596;2023-07-28T02:23:07;22.30;1.00
37281;DHT22;23169;41.804;12.596;2023-07-28T02:25:39;22.20;1.00
37281;DHT22;23169;41.804;12.596;2023-07-28T02:28:10;22.20;1.00
37281;DHT22;23169;41.804;12.596;2023-07-28T02:30:41;22.20;1.00
37281;DHT22;23169;41.804;12.596;2023-07-28T02:33:10;22.20;1.00
37281;DHT22;23169;41.804;12.596;2023-07-28T02:35:39;22.10;1.00
37281;DHT22;23169;41.804;12.596;2023-07-28T02:38:08;22.10;1.00
37281;DHT22;23169;41.804;12.596;2023-07-28T02:40:37;22.10;1.00
37281;DHT22;23169;41.804;12.596;2023-07-28T02:43:09;22.10;1.00
37281;DHT22;23169;41.804;12.596;2023-07-28T02:45:38;22.10;1.00
37281;DHT22;23169;41.804;12.596;2023-07-28T02:48:07;22.10;1.00
37281;DHT22;23169;41.804;12.596;2023-07-28T02:50:35;22.00;1.00
37281;DHT22;23169;41.804;12.596;2023-07-28T02:53:04;22.00;1.00
37281;DHT22;23169;41.804;12.596;2023-07-28T02:55:43;22.00;1.00
37281;DHT22;23169;41.804;12.596;2023-07-28T02:58:13;22.00;1.00
37281;DHT22;23169;41.804;12.596;2023-07-28T03:00:43;22.00;1.00
37281;DHT22;23169;41.804;12.596;2023-07-28T03:03:14;22.00;1.00
37281;DHT22;23169;41.804;12.596;2023-07-28T03:05:42;22.00;1.00
37281;DHT22;23169;41.804;12.596;2023-07-28T03:08:11;22.00;1.00
37281;DHT22;23169;41.804;12.596;2023-07-28T03:10:40;22.10;1.00
37281;DHT22;23169;41.804;12.596;2023-07-28T03:13:09;22.00;1.00
37281;DHT22;23169;41.804;12.596;2023-07-28T03:15:39;22.00;1.00
37281;DHT22;23169;41.804;12.596;2023-07-28T03:18:08;22.10;1.00
37281;DHT22;23169;41.804;12.596;2023-07-28T03:20:37;22.00;1.00
37281;DHT22;23169;41.804;12.596;2023-07-28T03:23:06;21.90;1.00
37281;DHT22;23169;41.804;12.596;2023-07-28T03:25:35;21.90;1.00
37281;DHT22;23169;41.804;12.596;2023-07-28T03:28:04;22.00;1.00
37281;DHT22;23169;41.804;12.596;2023-07-28T03:30:33;22.00;1.00
37281;DHT22;23169;41.804;12.596;2023-07-28T03:33:04;22.00;1.00
37281;DHT22;23169;41.804;12.596;2023-07-28T03:35:34;22.00;1.00
37281;DHT22;23169;41.804;12.596;2023-07-28T03:38:02;21.90;1.00
37281;DHT22;23169;41.804;12.596;2023-07-28T03:40:32;21.90;1.00
37281;DHT22;23169;41.804;12.596;2023-07-28T03:43:01;21.90;1.00
37281;DHT22;23169;41.804;12.596;2023-07-28T03:45:31;21.80;1.00
37281;DHT22;23169;41.804;12.596;2023-07-28T03:47:59;21.80;1.00
37281;DHT22;23169;41.804;12.596;2023-07-28T03:50:28;21.80;1.00
37281;DHT22;23169;41.804;12.596;2023-07-28T03:52:57;21.80;1.00
37281;DHT22;23169;41.804;12.596;2023-07-28T03:55:26;21.80;1.00
37281;DHT22;23169;41.804;12.596;2023-07-28T03:57:55;21.70;1.00
37281;DHT22;23169;41.804;12.596;2023-07-28T04:00:24;21.70;1.00
37281;DHT22;23169;41.804;12.596;2023-07-28T04:02:53;21.70;1.00
37281;DHT22;23169;41.804;12.596;2023-07-28T04:05:21;21.70;1.00
37281;DHT22;23169;41.804;12.596;2023-07-28T04:07:50;21.70;1.00
37281;DHT22;23169;41.804;12.596;2023-07-28T04:10:18;21.70;1.00
37281;DHT22;23169;41.804;12.596;2023-07-28T04:12:48;21.70;1.00
37281;DHT22;23169;41.804;12.596;2023-07-28T04:15:16;21.70;1.00
37281;DHT22;23169;41.804;12.596;2023-07-28T04:17:45;21.70;1.00
37281;DHT22;23169;41.804;12.596;2023-07-28T04:20:14;21.70;1.00
37281;DHT22;23169;41.804;12.596;2023-07-28T04:22:42;21.70;1.00
37281;DHT22;23169;41.804;12.596;2023-07-28T04:25:11;21.70;1.00
37281;DHT22;23169;41.804;12.596;2023-07-28T04:27:40;21.70;1.00
37281;DHT22;23169;41.804;12.596;2023-07-28T04:30:09;21.70;1.00
37281;DHT22;23169;41.804;12.596;2023-07-28T04:32:38;21.70;1.00
37281;DHT22;23169;41.804;12.596;2023-07-28T04:35:07;21.60;1.00
37281;DHT22;23169;41.804;12.596;2023-07-28T04:37:36;21.50;1.00
37281;DHT22;23169;41.804;12.596;2023-07-28T04:40:06;21.30;1.00
37281;DHT22;23169;41.804;12.596;2023-07-28T04:42:37;21.20;1.00
37281;DHT22;23169;41.804;12.596;2023-07-28T04:45:06;21.20;1.00
37281;DHT22;23169;41.804;12.596;2023-07-28T04:47:36;21.10;1.00
37281;DHT22;23169;41.804;12.596;2023-07-28T04:50:07;21.10;1.00
37281;DHT22;23169;41.804;12.596;2023-07-28T04:52:35;21.10;1.00
37281;DHT22;23169;41.804;12.596;2023-07-28T04:55:04;21.10;1.00
37281;DHT22;23169;41.804;12.596;2023-07-28T04:57:34;21.10;1.00
37281;DHT22;23169;41.804;12.596;2023-07-28T05:00:03;21.10;1.00
37281;DHT22;23169;41.804;12.596;2023-07-28T05:02:34;21.20;1.00
37281;DHT22;23169;41.804;12.596;2023-07-28T05:05:02;21.20;1.00
37281;DHT22;23169;41.804;12.596;2023-07-28T05:07:32;21.30;1.00
37281;DHT22;23169;41.804;12.596;2023-07-28T05:10:04;21.30;1.00
37281;DHT22;23169;41.804;12.596;2023-07-28T05:12:34;21.40;1.00
37281;DHT22;23169;41.804;12.596;2023-07-28T05:15:02;21.40;1.00
37281;DHT22;23169;41.804;12.596;2023-07-28T05:17:33;21.50;1.00
37281;DHT22;23169;41.804;12.596;2023-07-28T05:20:02;21.50;1.00
37281;DHT22;23169;41.804;12.596;2023-07-28T05:22:31;21.60;1.00
37281;DHT22;23169;41.804;12.596;2023-07-28T05:25:00;21.60;1.00
37281;DHT22;23169;41.804;12.596;2023-07-28T05:27:32;21.70;1.00
37281;DHT22;23169;41.804;12.596;2023-07-28T05:30:00;21.70;1.00
37281;DHT22;23169;41.804;12.596;2023-07-28T05:32:30;21.70;1.00
37281;DHT22;23169;41.804;12.596;2023-07-28T05:34:58;21.70;1.00
37281;DHT22;23169;41.804;12.596;2023-07-28T05:37:27;21.80;1.00
37281;DHT22;23169;41.804;12.596;2023-07-28T05:39:56;21.90;1.00
37281;DHT22;23169;41.804;12.596;2023-07-28T05:42:25;21.90;1.00
37281;DHT22;23169;41.804;12.596;2023-07-28T05:44:54;22.00;1.00
37281;DHT22;23169;41.804;12.596;2023-07-28T05:47:23;22.10;1.00
37281;DHT22;23169;41.804;12.596;2023-07-28T05:49:52;22.20;1.00
37281;DHT22;23169;41.804;12.596;2023-07-28T05:52:25;22.20;1.00
37281;DHT22;23169;41.804;12.596;2023-07-28T05:54:54;22.30;1.00
37281;DHT22;23169;41.804;12.596;2023-07-28T05:57:22;22.50;1.00
37281;DHT22;23169;41.804;12.596;2023-07-28T05:59:51;22.70;1.00
37281;DHT22;23169;41.804;12.596;2023-07-28T06:02:20;22.80;1.00
37281;DHT22;23169;41.804;12.596;2023-07-28T06:04:48;23.00;1.00
37281;DHT22;23169;41.804;12.596;2023-07-28T06:07:17;23.10;1.00
37281;DHT22;23169;41.804;12.596;2023-07-28T06:09:45;23.20;1.00
37281;DHT22;23169;41.804;12.596;2023-07-28T06:12:14;23.30;1.00
37281;DHT22;23169;41.804;12.596;2023-07-28T06:14:44;23.50;1.00
37281;DHT22;23169;41.804;12.596;2023-07-28T06:17:13;23.70;1.00
37281;DHT22;23169;41.804;12.596;2023-07-28T06:19:42;23.80;1.00
37281;DHT22;23169;41.804;12.596;2023-07-28T06:22:10;23.90;1.00
37281;DHT22;23169;41.804;12.596;2023-07-28T06:24:39;23.90;1.00
37281;DHT22;23169;41.804;12.596;2023-07-28T06:27:08;24.00;1.00
37281;DHT22;23169;41.804;12.596;2023-07-28T06:29:40;24.10;1.00
37281;DHT22;23169;41.804;12.596;2023-07-28T06:32:08;24.10;1.00
37281;DHT22;23169;41.804;12.596;2023-07-28T06:34:37;24.20;1.00
37281;DHT22;23169;41.804;12.596;2023-07-28T06:37:07;24.30;1.00
37281;DHT22;23169;41.804;12.596;2023-07-28T06:39:37;24.40;1.00
37281;DHT22;23169;41.804;12.596;2023-07-28T06:42:07;24.40;1.00
37281;DHT22;23169;41.804;12.596;2023-07-28T06:44:40;24.40;1.00
37281;DHT22;23169;41.804;12.596;2023-07-28T06:47:10;24.40;1.00
37281;DHT22;23169;41.804;12.596;2023-07-28T06:49:39;24.50;1.00
37281;DHT22;23169;41.804;12.596;2023-07-28T06:52:07;24.60;1.00
37281;DHT22;23169;41.804;12.596;2023-07-28T06:54:36;24.70;1.00
37281;DHT22;23169;41.804;12.596;2023-07-28T06:57:08;24.80;1.00
37281;DHT22;23169;41.804;12.596;2023-07-28T06:59:37;24.90;1.00
37281;DHT22;23169;41.804;12.596;2023-07-28T07:02:06;25.00;1.00
37281;DHT22;23169;41.804;12.596;2023-07-28T07:04:35;25.00;1.00
37281;DHT22;23169;41.804;12.596;2023-07-28T07:07:04;25.00;1.00
37281;DHT22;23169;41.804;12.596;2023-07-28T07:09:33;25.10;1.00
37281;DHT22;23169;41.804;12.596;2023-07-28T07:12:03;25.30;1.00
37281;DHT22;23169;41.804;12.596;2023-07-28T07:14:33;25.50;1.00
37281;DHT22;23169;41.804;12.596;2023-07-28T07:17:02;25.60;1.00
37281;DHT22;23169;41.804;12.596;2023-07-28T07:19:31;25.70;1.00
37281;DHT22;23169;41.804;12.596;2023-07-28T07:22:00;25.80;1.00
37281;DHT22;23169;41.804;12.596;2023-07-28T07:24:31;25.80;1.00
37281;DHT22;23169;41.804;12.596;2023-07-28T07:27:00;25.80;1.00
37281;DHT22;23169;41.804;12.596;2023-07-28T07:29:29;25.80;1.00
37281;DHT22;23169;41.804;12.596;2023-07-28T07:31:58;25.80;1.00
37281;DHT22;23169;41.804;12.596;2023-07-28T07:34:26;25.90;1.00
37281;DHT22;23169;41.804;12.596;2023-07-28T07:36:55;26.00;1.00
37281;DHT22;23169;41.804;12.596;2023-07-28T07:39:25;26.10;1.00
37281;DHT22;23169;41.804;12.596;2023-07-28T07:41:54;26.20;1.00
37281;DHT22;23169;41.804;12.596;2023-07-28T07:44:23;26.30;1.00
37281;DHT22;23169;41.804;12.596;2023-07-28T07:46:52;26.40;1.00
37281;DHT22;23169;41.804;12.596;2023-07-28T07:49:20;26.40;1.00
37281;DHT22;23169;41.804;12.596;2023-07-28T07:51:49;26.60;1.00
37281;DHT22;23169;41.804;12.596;2023-07-28T07:54:18;26.70;1.00
37281;DHT22;23169;41.804;12.596;2023-07-28T07:56:48;26.90;1.00
37281;DHT22;23169;41.804;12.596;2023-07-28T07:59:16;26.80;1.00
37281;DHT22;23169;41.804;12.596;2023-07-28T08:01:49;26.90;1.00
37281;DHT22;23169;41.804;12.596;2023-07-28T08:04:19;26.90;1.00
37281;DHT22;23169;41.804;12.596;2023-07-28T08:06:47;27.00;1.00
37281;DHT22;23169;41.804;12.596;2023-07-28T08:09:16;27.10;1.00
37281;DHT22;23169;41.804;12.596;2023-07-28T08:11:47;27.20;1.00
37281;DHT22;23169;41.804;12.596;2023-07-28T08:14:16;27.50;1.00
37281;DHT22;23169;41.804;12.596;2023-07-28T08:16:46;27.70;1.00
37281;DHT22;23169;41.804;12.596;2023-07-28T08:19:16;27.80;1.00
37281;DHT22;23169;41.804;12.596;2023-07-28T08:21:48;27.80;1.00
37281;DHT22;23169;41.804;12.596;2023-07-28T08:24:17;27.90;1.00
37281;DHT22;23169;41.804;12.596;2023-07-28T08:26:48;28.00;1.00
37281;DHT22;23169;41.804;12.596;2023-07-28T08:29:17;28.10;1.00
37281;DHT22;23169;41.804;12.596;2023-07-28T08:31:47;28.20;1.00
37281;DHT22;23169;41.804;12.596;2023-07-28T08:34:19;28.30;1.00
37281;DHT22;23169;41.804;12.596;2023-07-28T08:36:48;28.50;1.00
37281;DHT22;23169;41.804;12.596;2023-07-28T08:39:18;28.60;1.00
37281;DHT22;23169;41.804;12.596;2023-07-28T08:41:47;28.80;1.00
37281;DHT22;23169;41.804;12.596;2023-07-28T08:44:16;28.80;1.00
37281;DHT22;23169;41.804;12.596;2023-07-28T08:46:45;28.90;1.00
37281;DHT22;23169;41.804;12.596;2023-07-28T08:49:14;29.00;1.00
37281;DHT22;23169;41.804;12.596;2023-07-28T08:51:49;29.10;1.00
37281;DHT22;23169;41.804;12.596;2023-07-28T08:54:18;29.00;1.00
37281;DHT22;23169;41.804;12.596;2023-07-28T08:56:49;29.10;1.00
37281;DHT22;23169;41.804;12.596;2023-07-28T08:59:25;28.90;1.00
37281;DHT22;23169;41.804;12.596;2023-07-28T09:01:57;28.90;1.00
37281;DHT22;23169;41.804;12.596;2023-07-28T09:04:31;28.90;1.00
37281;DHT22;23169;41.804;12.596;2023-07-28T09:06:59;28.90;1.00
37281;DHT22;23169;41.804;12.596;2023-07-28T09:09:32;29.10;1.00
37281;DHT22;23169;41.804;12.596;2023-07-28T09:12:01;29.00;1.00
37281;DHT22;23169;41.804;12.596;2023-07-28T09:14:35;29.00;1.00
37281;DHT22;23169;41.804;12.596;2023-07-28T09:17:11;29.30;1.00
37281;DHT22;23169;41.804;12.596;2023-07-28T09:20:02;29.50;1.00
37281;DHT22;23169;41.804;12.596;2023-07-28T09:22:31;29.80;1.00
37281;DHT22;23169;41.804;12.596;2023-07-28T09:25:14;30.00;1.00
37281;DHT22;23169;41.804;12.596;2023-07-28T09:27:51;30.30;1.00
37281;DHT22;23169;41.804;12.596;2023-07-28T09:30:21;30.40;1.00
37281;DHT22;23169;41.804;12.596;2023-07-28T09:32:54;30.60;1.00
37281;DHT22;23169;41.804;12.596;2023-07-28T09:35:23;30.60;1.00
37281;DHT22;23169;41.804;12.596;2023-07-28T09:37:53;30.40;1.00
37281;DHT22;23169;41.804;12.596;2023-07-28T09:40:24;30.40;1.00
37281;DHT22;23169;41.804;12.596;2023-07-28T09:42:53;30.40;1.00
37281;DHT22;23169;41.804;12.596;2023-07-28T09:45:23;30.10;1.00
37281;DHT22;23169;41.804;12.596;2023-07-28T09:47:56;30.10;1.00
37281;DHT22;23169;41.804;12.596;2023-07-28T09:50:27;29.70;1.00
37281;DHT22;23169;41.804;12.596;2023-07-28T09:53:04;29.90;1.00
37281;DHT22;23169;41.804;12.596;2023-07-28T09:55:39;30.40;1.00
37281;DHT22;23169;41.804;12.596;2023-07-28T09:58:12;30.60;1.00
37281;DHT22;23169;41.804;12.596;2023-07-28T10:00:43;30.50;1.00
37281;DHT22;23169;41.804;12.596;2023-07-28T10:03:12;30.60;1.00
37281;DHT22;23169;41.804;12.596;2023-07-28T10:05:43;31.00;1.00
37281;DHT22;23169;41.804;12.596;2023-07-28T10:08:14;31.50;1.00
37281;DHT22;23169;41.804;12.596;2023-07-28T10:10:43;31.70;1.00
37281;DHT22;23169;41.804;12.596;2023-07-28T10:13:20;31.80;1.00
37281;DHT22;23169;41.804;12.596;2023-07-28T10:15:50;31.60;1.00
37281;DHT22;23169;41.804;12.596;2023-07-28T10:18:21;31.60;1.00
37281;DHT22;23169;41.804;12.596;2023-07-28T10:20:50;31.10;1.00
37281;DHT22;23169;41.804;12.596;2023-07-28T10:23:21;31.00;1.00
37281;DHT22;23169;41.804;12.596;2023-07-28T10:25:59;30.90;1.00
37281;DHT22;23169;41.804;12.596;2023-07-28T10:28:35;30.80;1.00
37281;DHT22;23169;41.804;12.596;2023-07-28T10:31:08;30.80;1.00
37281;DHT22;23169;41.804;12.596;2023-07-28T10:33:44;30.80;1.00
37281;DHT22;23169;41.804;12.596;2023-07-28T10:38:43;31.00;1.00
37281;DHT22;23169;41.804;12.596;2023-07-28T10:41:15;31.10;1.00
37281;DHT22;23169;41.804;12.596;2023-07-28T10:43:46;31.30;1.00
37281;DHT22;23169;41.804;12.596;2023-07-28T10:46:17;31.70;1.00
37281;DHT22;23169;41.804;12.596;2023-07-28T10:48:48;31.90;1.00
37281;DHT22;23169;41.804;12.596;2023-07-28T10:51:24;31.80;1.00
37281;DHT22;23169;41.804;12.596;2023-07-28T10:53:57;31.60;1.00
37281;DHT22;23169;41.804;12.596;2023-07-28T10:56:27;31.30;1.00
37281;DHT22;23169;41.804;12.596;2023-07-28T10:59:00;31.40;1.00
37281;DHT22;23169;41.804;12.596;2023-07-28T11:01:39;31.60;1.00
37281;DHT22;23169;41.804;12.596;2023-07-28T11:04:15;31.60;1.00
37281;DHT22;23169;41.804;12.596;2023-07-28T11:06:46;31.90;1.00
37281;DHT22;23169;41.804;12.596;2023-07-28T11:09:18;32.20;1.00
37281;DHT22;23169;41.804;12.596;2023-07-28T11:11:49;32.00;1.00
37281;DHT22;23169;41.804;12.596;2023-07-28T11:14:19;31.90;1.00
37281;DHT22;23169;41.804;12.596;2023-07-28T11:16:49;32.20;1.00
37281;DHT22;23169;41.804;12.596;2023-07-28T11:19:19;32.00;1.00
37281;DHT22;23169;41.804;12.596;2023-07-28T11:21:53;32.00;1.00
37281;DHT22;23169;41.804;12.596;2023-07-28T11:24:23;32.20;1.00
37281;DHT22;23169;41.804;12.596;2023-07-28T11:26:54;32.70;1.00
37281;DHT22;23169;41.804;12.596;2023-07-28T11:29:23;32.80;1.00
37281;DHT22;23169;41.804;12.596;2023-07-28T11:31:54;32.80;1.00
37281;DHT22;23169;41.804;12.596;2023-07-28T11:34:23;32.80;1.00
37281;DHT22;23169;41.804;12.596;2023-07-28T11:36:52;33.00;1.00
37281;DHT22;23169;41.804;12.596;2023-07-28T11:39:21;32.70;1.00
37281;DHT22;23169;41.804;12.596;2023-07-28T11:41:50;32.90;1.00
37281;DHT22;23169;41.804;12.596;2023-07-28T11:44:23;32.90;1.00
37281;DHT22;23169;41.804;12.596;2023-07-28T11:46:53;33.00;1.00
37281;DHT22;23169;41.804;12.596;2023-07-28T11:49:23;32.90;1.00
37281;DHT22;23169;41.804;12.596;2023-07-28T11:51:55;33.20;1.00
37281;DHT22;23169;41.804;12.596;2023-07-28T11:54:27;32.70;1.00
37281;DHT22;23169;41.804;12.596;2023-07-28T11:56:57;32.50;1.00
37281;DHT22;23169;41.804;12.596;2023-07-28T11:59:29;32.60;1.00
37281;DHT22;23169;41.804;12.596;2023-07-28T12:02:03;32.90;1.00
37281;DHT22;23169;41.804;12.596;2023-07-28T12:04:39;33.10;1.00
37281;DHT22;23169;41.804;12.596;2023-07-28T12:07:14;33.40;1.00
37281;DHT22;23169;41.804;12.596;2023-07-28T12:09:48;33.60;1.00
37281;DHT22;23169;41.804;12.596;2023-07-28T12:12:18;33.70;1.00
37281;DHT22;23169;41.804;12.596;2023-07-28T12:14:48;33.60;1.00
37281;DHT22;23169;41.804;12.596;2023-07-28T12:17:21;33.80;1.00
37281;DHT22;23169;41.804;12.596;2023-07-28T12:20:07;34.10;1.00
37281;DHT22;23169;41.804;12.596;2023-07-28T12:22:43;34.50;1.00
37281;DHT22;23169;41.804;12.596;2023-07-28T12:25:12;34.10;1.00
37281;DHT22;23169;41.804;12.596;2023-07-28T12:27:42;34.40;1.00
37281;DHT22;23169;41.804;12.596;2023-07-28T12:30:13;34.10;1.00
37281;DHT22;23169;41.804;12.596;2023-07-28T12:32:42;34.60;1.00
37281;DHT22;23169;41.804;12.596;2023-07-28T12:35:10;34.30;1.00
37281;DHT22;23169;41.804;12.596;2023-07-28T12:37:40;34.90;1.00
37281;DHT22;23169;41.804;12.596;2023-07-28T12:40:09;34.00;1.00
37281;DHT22;23169;41.804;12.596;2023-07-28T12:42:38;33.60;1.00
37281;DHT22;23169;41.804;12.596;2023-07-28T12:45:07;33.50;1.00
37281;DHT22;23169;41.804;12.596;2023-07-28T12:47:41;33.90;1.00
37281;DHT22;23169;41.804;12.596;2023-07-28T12:50:10;34.10;1.00
37281;DHT22;23169;41.804;12.596;2023-07-28T12:52:39;34.50;1.00
37281;DHT22;23169;41.804;12.596;2023-07-28T12:55:08;34.80;1.00
37281;DHT22;23169;41.804;12.596;2023-07-28T12:57:40;33.70;1.00
37281;DHT22;23169;41.804;12.596;2023-07-28T13:00:10;34.50;1.00
37281;DHT22;23169;41.804;12.596;2023-07-28T13:02:44;34.60;1.00
37281;DHT22;23169;41.804;12.596;2023-07-28T13:05:13;34.70;1.00
37281;DHT22;23169;41.804;12.596;2023-07-28T13:07:44;35.10;1.00
37281;DHT22;23169;41.804;12.596;2023-07-28T13:10:12;35.60;1.00
37281;DHT22;23169;41.804;12.596;2023-07-28T13:12:42;35.70;1.00
37281;DHT22;23169;41.804;12.596;2023-07-28T13:15:11;35.50;1.00
37281;DHT22;23169;41.804;12.596;2023-07-28T13:17:39;35.50;1.00
37281;DHT22;23169;41.804;12.596;2023-07-28T13:20:09;35.70;1.00
37281;DHT22;23169;41.804;12.596;2023-07-28T13:22:41;36.10;1.00
37281;DHT22;23169;41.804;12.596;2023-07-28T13:25:10;36.50;1.00
37281;DHT22;23169;41.804;12.596;2023-07-28T13:27:39;36.90;1.00
37281;DHT22;23169;41.804;12.596;2023-07-28T13:30:08;36.90;1.00
37281;DHT22;23169;41.804;12.596;2023-07-28T13:32:38;35.60;1.00
37281;DHT22;23169;41.804;12.596;2023-07-28T13:35:07;35.40;1.00
37281;DHT22;23169;41.804;12.596;2023-07-28T13:37:37;36.00;1.00
37281;DHT22;23169;41.804;12.596;2023-07-28T13:40:06;36.20;1.00
37281;DHT22;23169;41.804;12.596;2023-07-28T13:42:35;34.80;1.00
37281;DHT22;23169;41.804;12.596;2023-07-28T13:45:04;35.20;1.00
37281;DHT22;23169;41.804;12.596;2023-07-28T13:47:34;35.70;1.00
37281;DHT22;23169;41.804;12.596;2023-07-28T13:50:03;35.70;1.00
37281;DHT22;23169;41.804;12.596;2023-07-28T13:52:32;35.80;1.00
37281;DHT22;23169;41.804;12.596;2023-07-28T13:55:00;35.50;1.00
37281;DHT22;23169;41.804;12.596;2023-07-28T13:57:29;35.00;1.00
37281;DHT22;23169;41.804;12.596;2023-07-28T13:59:58;35.10;1.00
37281;DHT22;23169;41.804;12.596;2023-07-28T14:02:27;35.50;1.00
37281;DHT22;23169;41.804;12.596;2023-07-28T14:04:56;36.40;1.00
37281;DHT22;23169;41.804;12.596;2023-07-28T14:07:25;35.90;1.00
37281;DHT22;23169;41.804;12.596;2023-07-28T14:09:53;34.50;1.00
37281;DHT22;23169;41.804;12.596;2023-07-28T14:12:22;35.00;1.00
37281;DHT22;23169;41.804;12.596;2023-07-28T14:14:56;35.30;1.00
37281;DHT22;23169;41.804;12.596;2023-07-28T14:17:25;35.20;1.00
37281;DHT22;23169;41.804;12.596;2023-07-28T14:19:54;35.10;1.00
37281;DHT22;23169;41.804;12.596;2023-07-28T14:22:23;35.40;1.00
37281;DHT22;23169;41.804;12.596;2023-07-28T14:24:52;36.10;1.00
37281;DHT22;23169;41.804;12.596;2023-07-28T14:27:20;36.30;1.00
37281;DHT22;23169;41.804;12.596;2023-07-28T14:29:49;36.00;1.00
37281;DHT22;23169;41.804;12.596;2023-07-28T14:32:18;35.60;1.00
37281;DHT22;23169;41.804;12.596;2023-07-28T14:34:50;34.70;1.00
37281;DHT22;23169;41.804;12.596;2023-07-28T14:37:19;35.40;1.00
37281;DHT22;23169;41.804;12.596;2023-07-28T14:39:48;35.90;1.00
37281;DHT22;23169;41.804;12.596;2023-07-28T14:42:16;36.20;1.00
37281;DHT22;23169;41.804;12.596;2023-07-28T14:44:45;36.40;1.00
37281;DHT22;23169;41.804;12.596;2023-07-28T14:47:14;36.50;1.00
37281;DHT22;23169;41.804;12.596;2023-07-28T14:49:43;35.40;1.00
37281;DHT22;23169;41.804;12.596;2023-07-28T14:52:12;35.50;1.00
37281;DHT22;23169;41.804;12.596;2023-07-28T14:54:41;36.10;1.00
37281;DHT22;23169;41.804;12.596;2023-07-28T14:57:09;36.10;1.00
37281;DHT22;23169;41.804;12.596;2023-07-28T14:59:44;36.60;1.00
37281;DHT22;23169;41.804;12.596;2023-07-28T15:02:14;36.30;1.00
37281;DHT22;23169;41.804;12.596;2023-07-28T15:04:42;36.30;1.00
37281;DHT22;23169;41.804;12.596;2023-07-28T15:07:13;36.80;1.00
37281;DHT22;23169;41.804;12.596;2023-07-28T15:09:44;36.90;1.00
37281;DHT22;23169;41.804;12.596;2023-07-28T15:12:12;36.90;1.00
37281;DHT22;23169;41.804;12.596;2023-07-28T15:14:41;37.10;1.00
37281;DHT22;23169;41.804;12.596;2023-07-28T15:17:09;37.00;1.00
37281;DHT22;23169;41.804;12.596;2023-07-28T15:19:40;36.80;1.00
37281;DHT22;23169;41.804;12.596;2023-07-28T15:22:08;36.00;1.00
37281;DHT22;23169;41.804;12.596;2023-07-28T15:24:37;35.90;1.00
37281;DHT22;23169;41.804;12.596;2023-07-28T15:27:06;36.40;1.00
37281;DHT22;23169;41.804;12.596;2023-07-28T15:29:35;36.80;1.00
37281;DHT22;23169;41.804;12.596;2023-07-28T15:32:04;37.00;1.00
37281;DHT22;23169;41.804;12.596;2023-07-28T15:34:33;37.10;1.00
37281;DHT22;23169;41.804;12.596;2023-07-28T15:37:03;36.80;1.00
37281;DHT22;23169;41.804;12.596;2023-07-28T15:39:36;35.70;1.00
37281;DHT22;23169;41.804;12.596;2023-07-28T15:42:05;35.70;1.00
37281;DHT22;23169;41.804;12.596;2023-07-28T15:44:35;35.80;1.00
37281;DHT22;23169;41.804;12.596;2023-07-28T15:47:05;35.80;1.00
37281;DHT22;23169;41.804;12.596;2023-07-28T15:49:34;35.80;1.00
37281;DHT22;23169;41.804;12.596;2023-07-28T15:52:03;35.90;1.00